Time;durP1;ratioP1;P1;durP2;ratioP2;P2;SDS_P1;SDS_P2;PMS_P1;PMS_P2;Temp;Humidity;BMP_temperature;BMP_pressure;BME280_temperature;BME280_humidity;BME280_pressure;Samples;Min_cycle;Max_cycle;Signal;HPM_P1;HPM_P2
2021/09/16 00:00:26;;;;;;;11.48;1.70;;;14.90;99.90;;;;;;4879295;29;20032;-79
2021/09/16 00:02:52;;;;;;;7.78;1.50;;;14.80;99.90;;;;;;4897072;29;20416;-79
2021/09/16 00:05:18;;;;;;;6.00;1.35;;;14.80;99.90;;;;;;4898977;29;20044;-79
2021/09/16 00:07:45;;;;;;;7.50;1.30;;;14.80;99.90;;;;;;4915710;29;20168;-79
2021/09/16 00:10:13;;;;;;;7.32;1.23;;;14.80;99.90;;;;;;4889878;29;20451;-79
2021/09/16 00:12:39;;;;;;;12.50;1.40;;;14.70;99.90;;;;;;4897166;29;20119;-79
2021/09/16 00:15:07;;;;;;;7.93;1.40;;;14.60;99.90;;;;;;4897622;29;20126;-79
2021/09/16 00:17:33;;;;;;;9.18;1.50;;;14.60;99.90;;;;;;4891053;29;20053;-79
2021/09/16 00:19:58;;;;;;;10.48;1.50;;;14.50;99.90;;;;;;4898592;29;20070;-79
2021/09/16 00:22:24;;;;;;;5.05;1.00;;;14.50;99.90;;;;;;4897176;29;20051;-79
2021/09/16 00:24:50;;;;;;;5.63;1.52;;;14.50;99.90;;;;;;4885986;29;20059;-79
2021/09/16 00:27:15;;;;;;;11.45;1.88;;;14.50;99.90;;;;;;4892868;29;20052;-79
2021/09/16 00:29:41;;;;;;;13.38;1.40;;;14.40;99.90;;;;;;4879716;29;20409;-79
2021/09/16 00:32:07;;;;;;;7.78;1.35;;;14.40;99.90;;;;;;4893293;29;20135;-78
2021/09/16 00:34:32;;;;;;;6.45;1.20;;;14.40;99.90;;;;;;4896363;29;20167;-79
2021/09/16 00:36:58;;;;;;;5.72;1.17;;;14.40;99.90;;;;;;4906870;29;20136;-78
2021/09/16 00:39:24;;;;;;;7.70;1.33;;;14.30;99.90;;;;;;4898308;29;20044;-79
2021/09/16 00:41:49;;;;;;;9.05;1.05;;;14.40;99.90;;;;;;4898048;29;20040;-78
2021/09/16 00:44:15;;;;;;;14.30;1.35;;;14.30;99.90;;;;;;4898063;29;20062;-78
2021/09/16 00:46:41;;;;;;;9.52;1.20;;;14.30;99.90;;;;;;4881479;29;20123;-78
2021/09/16 00:49:07;;;;;;;8.70;1.20;;;14.40;99.90;;;;;;4897228;29;20199;-78
2021/09/16 00:51:34;;;;;;;8.00;1.35;;;14.40;99.90;;;;;;4897657;29;20205;-78
2021/09/16 00:54:02;;;;;;;5.55;1.00;;;14.40;99.90;;;;;;4876533;29;20346;-79
2021/09/16 00:56:29;;;;;;;10.13;1.35;;;14.40;99.90;;;;;;4898235;29;20050;-78
2021/09/16 00:58:58;;;;;;;6.70;1.00;;;14.40;99.90;;;;;;4879995;29;20041;-79
2021/09/16 01:01:23;;;;;;;5.55;1.27;;;14.40;99.90;;;;;;4896845;29;20131;-78
2021/09/16 01:03:50;;;;;;;13.05;2.08;;;14.40;99.90;;;;;;4898228;29;20131;-79
2021/09/16 01:06:17;;;;;;;5.97;1.02;;;14.40;99.90;;;;;;4896913;29;20048;-78
2021/09/16 01:08:43;;;;;;;4.80;0.90;;;14.40;99.90;;;;;;4879013;29;20082;-78
2021/09/16 01:11:09;;;;;;;8.65;1.60;;;14.50;99.90;;;;;;4894936;29;20089;-78
2021/09/16 01:13:34;;;;;;;8.23;1.17;;;14.50;99.90;;;;;;4892654;29;20055;-78
2021/09/16 01:16:00;;;;;;;8.38;1.10;;;14.50;99.90;;;;;;4891827;29;20041;-79
2021/09/16 01:18:26;;;;;;;7.32;2.03;;;14.50;99.90;;;;;;4894907;29;20096;-78
2021/09/16 01:20:54;;;;;;;4.95;1.23;;;14.60;99.90;;;;;;4879264;29;20132;-79
2021/09/16 01:23:23;;;;;;;6.05;1.20;;;14.60;99.90;;;;;;4891383;29;20124;-78
2021/09/16 01:25:49;;;;;;;6.45;1.10;;;14.60;99.90;;;;;;4910708;29;20123;-79
2021/09/16 01:28:14;;;;;;;7.55;1.30;;;14.60;99.90;;;;;;4892881;29;20119;-79
2021/09/16 01:30:40;;;;;;;5.93;1.08;;;14.60;99.90;;;;;;4894935;29;20121;-79
2021/09/16 01:33:06;;;;;;;6.82;1.38;;;14.60;99.90;;;;;;4892952;29;20071;-79
2021/09/16 01:35:32;;;;;;;9.70;1.08;;;14.60;99.90;;;;;;4895686;29;20856;-78
2021/09/16 01:37:58;;;;;;;6.38;1.27;;;14.60;99.90;;;;;;4895506;29;20044;-79
2021/09/16 01:40:24;;;;;;;10.07;1.40;;;14.60;99.90;;;;;;4879425;29;20063;-79
2021/09/16 01:42:50;;;;;;;10.50;1.55;;;14.60;99.90;;;;;;4893308;29;20049;-79
2021/09/16 01:45:19;;;;;;;10.93;1.58;;;14.60;99.90;;;;;;4875952;29;20056;-78
2021/09/16 01:47:46;;;;;;;6.65;1.70;;;14.50;99.90;;;;;;4885817;29;20079;-78
2021/09/16 01:50:14;;;;;;;10.02;1.63;;;14.60;99.90;;;;;;4875505;29;20482;-78
2021/09/16 01:52:40;;;;;;;6.88;1.42;;;14.60;99.90;;;;;;4893159;29;20099;-79
2021/09/16 01:55:06;;;;;;;10.40;1.63;;;14.60;99.90;;;;;;4876948;29;20041;-78
2021/09/16 01:57:33;;;;;;;9.15;1.85;;;14.60;99.90;;;;;;4891615;29;20151;-78
2021/09/16 01:59:58;;;;;;;11.05;1.77;;;14.60;99.90;;;;;;4893345;29;20127;-78
2021/09/16 02:02:24;;;;;;;10.10;1.83;;;14.60;99.90;;;;;;4893983;29;20072;-78
2021/09/16 02:04:50;;;;;;;5.20;1.50;;;14.50;99.90;;;;;;4894051;29;20075;-79
2021/09/16 02:07:16;;;;;;;11.55;1.58;;;14.60;99.90;;;;;;4896026;29;20048;-79
2021/09/16 02:09:41;;;;;;;8.60;1.40;;;14.60;99.90;;;;;;4894618;29;20048;-79
2021/09/16 02:12:07;;;;;;;8.85;1.90;;;14.50;99.90;;;;;;4881196;29;20059;-78
2021/09/16 02:14:33;;;;;;;9.20;1.80;;;14.50;99.90;;;;;;4895957;29;20052;-79
2021/09/16 02:16:58;;;;;;;9.40;1.63;;;14.60;99.90;;;;;;4880089;29;20044;-79
2021/09/16 02:19:24;;;;;;;7.75;1.77;;;14.50;99.90;;;;;;4896406;29;20056;-79
2021/09/16 02:21:50;;;;;;;10.25;2.00;;;14.60;99.90;;;;;;4897535;29;20051;-79
2021/09/16 02:24:16;;;;;;;12.70;2.38;;;14.70;99.90;;;;;;4882060;29;20048;-79
2021/09/16 02:26:42;;;;;;;10.00;2.58;;;14.70;99.90;;;;;;4895837;29;20121;-79
2021/09/16 02:29:07;;;;;;;13.23;2.53;;;14.90;99.90;;;;;;4879712;29;20435;-79
2021/09/16 02:31:48;;;;;;;10.70;2.42;;;14.80;99.90;;;;;;4896981;29;20048;-79
2021/09/16 02:34:14;;;;;;;9.40;2.33;;;14.90;99.90;;;;;;4893121;29;20090;-79
2021/09/16 02:36:41;;;;;;;12.10;2.00;;;14.90;99.90;;;;;;4896565;29;20048;-79
2021/09/16 02:39:07;;;;;;;11.43;2.60;;;14.90;99.90;;;;;;4914054;29;20048;-79
2021/09/16 02:41:33;;;;;;;14.02;2.88;;;15.00;99.90;;;;;;4882235;29;20047;-79
2021/09/16 02:43:58;;;;;;;11.02;2.80;;;15.00;99.90;;;;;;4895011;29;20052;-79
2021/09/16 02:46:24;;;;;;;8.45;2.90;;;15.10;99.90;;;;;;4893582;29;20055;-79
2021/09/16 02:48:51;;;;;;;11.15;3.20;;;15.10;99.90;;;;;;4895583;29;20044;-79
2021/09/16 02:51:16;;;;;;;10.55;2.80;;;15.20;99.90;;;;;;4896935;29;20149;-79
2021/09/16 02:53:42;;;;;;;13.18;3.15;;;15.30;99.90;;;;;;4896344;29;20465;-79
2021/09/16 02:56:08;;;;;;;8.05;3.15;;;15.30;99.90;;;;;;4895452;29;20555;-79
2021/09/16 02:58:33;;;;;;;9.07;3.30;;;15.30;99.90;;;;;;4895784;29;20099;-79
2021/09/16 03:00:59;;;;;;;7.80;3.08;;;15.30;99.90;;;;;;4895923;29;20412;-80
2021/09/16 03:03:25;;;;;;;9.70;3.10;;;15.30;99.90;;;;;;4896774;29;20055;-79
2021/09/16 03:05:51;;;;;;;10.40;3.55;;;15.30;99.90;;;;;;4884889;29;20052;-79
2021/09/16 03:08:16;;;;;;;7.30;3.40;;;15.30;99.90;;;;;;4896073;29;20067;-79
2021/09/16 03:10:42;;;;;;;11.75;3.53;;;15.40;99.90;;;;;;4894238;29;20063;-79
2021/09/16 03:13:07;;;;;;;10.55;3.50;;;15.30;99.90;;;;;;4893677;29;20456;-79
2021/09/16 03:15:33;;;;;;;6.05;3.28;;;15.30;99.90;;;;;;4893982;29;20395;-79
2021/09/16 03:17:59;;;;;;;11.27;3.78;;;15.30;99.90;;;;;;4895742;29;20389;-80
2021/09/16 03:20:26;;;;;;;12.85;4.18;;;15.30;99.90;;;;;;4897746;29;20051;-80
2021/09/16 03:22:51;;;;;;;9.30;3.08;;;15.30;99.90;;;;;;4904094;29;20064;-80
2021/09/16 03:25:18;;;;;;;9.90;3.83;;;15.30;99.90;;;;;;4896148;29;20056;-79
2021/09/16 03:27:43;;;;;;;7.13;3.58;;;15.30;99.90;;;;;;4895213;29;20104;-79
2021/09/16 03:30:12;;;;;;;9.35;3.85;;;15.30;99.90;;;;;;4899665;29;20080;-79
2021/09/16 03:32:38;;;;;;;14.98;4.00;;;15.30;99.90;;;;;;4899925;29;20138;-79
2021/09/16 03:35:05;;;;;;;11.10;4.05;;;15.30;99.90;;;;;;4884594;29;20063;-80
2021/09/16 03:37:30;;;;;;;10.15;4.13;;;15.30;99.90;;;;;;4883958;29;20127;-79
2021/09/16 03:39:56;;;;;;;8.05;3.90;;;15.30;99.90;;;;;;4900399;29;20164;-80
2021/09/16 03:42:22;;;;;;;8.82;3.92;;;15.20;99.90;;;;;;4915359;29;20785;-80
2021/09/16 03:44:48;;;;;;;17.23;4.72;;;15.20;99.90;;;;;;4898856;29;20457;-79
2021/09/16 03:47:14;;;;;;;12.50;4.85;;;15.20;99.90;;;;;;4905949;29;20082;-79
2021/09/16 03:49:41;;;;;;;12.05;4.25;;;15.10;99.90;;;;;;4884477;29;20044;-79
2021/09/16 03:52:09;;;;;;;11.82;4.20;;;15.10;99.90;;;;;;4900176;29;20062;-79
2021/09/16 03:54:35;;;;;;;15.20;4.75;;;15.00;99.90;;;;;;4899189;29;20070;-79
2021/09/16 03:57:01;;;;;;;10.73;4.40;;;15.00;99.90;;;;;;4898603;29;20067;-80
2021/09/16 03:59:27;;;;;;;15.55;5.00;;;15.00;99.90;;;;;;4898738;29;20130;-79
2021/09/16 04:01:52;;;;;;;12.35;4.60;;;15.00;99.90;;;;;;4899502;29;20032;-79
2021/09/16 04:04:18;;;;;;;14.75;5.00;;;15.00;99.90;;;;;;4899818;29;20068;-79
2021/09/16 04:06:43;;;;;;;21.88;5.00;;;15.00;99.90;;;;;;4898853;29;20697;-79
2021/09/16 04:09:09;;;;;;;13.38;5.20;;;15.00;99.90;;;;;;4898513;29;20424;-79
2021/09/16 04:11:35;;;;;;;14.93;5.03;;;15.00;99.90;;;;;;4900233;29;20044;-79
2021/09/16 04:14:00;;;;;;;19.02;5.13;;;15.00;99.90;;;;;;4883486;29;20504;-80
2021/09/16 04:16:26;;;;;;;17.88;5.20;;;15.10;99.90;;;;;;4898645;29;20530;-80
2021/09/16 04:18:53;;;;;;;20.48;6.05;;;15.20;99.90;;;;;;4881395;29;20457;-81
2021/09/16 04:21:19;;;;;;;15.95;5.05;;;15.20;99.90;;;;;;4917403;29;20163;-80
2021/09/16 04:23:45;;;;;;;18.42;5.80;;;15.10;99.90;;;;;;4899150;29;20119;-80
2021/09/16 04:26:11;;;;;;;20.15;5.60;;;15.30;99.90;;;;;;4888147;29;20067;-80
2021/09/16 04:28:36;;;;;;;18.20;5.47;;;15.40;99.90;;;;;;4896042;29;20465;-79
2021/09/16 04:31:02;;;;;;;17.42;5.93;;;15.30;99.90;;;;;;4898044;29;20043;-80
2021/09/16 04:33:28;;;;;;;18.23;5.90;;;15.40;99.90;;;;;;4882741;29;20103;-79
2021/09/16 04:35:54;;;;;;;15.63;5.47;;;15.30;99.90;;;;;;4894362;29;20408;-80
2021/09/16 04:38:19;;;;;;;19.90;6.10;;;15.40;99.90;;;;;;4896129;29;20047;-80
2021/09/16 04:40:45;;;;;;;20.88;6.10;;;15.30;99.90;;;;;;4898677;29;20488;-79
2021/09/16 04:43:11;;;;;;;19.90;5.93;;;15.30;99.90;;;;;;4897570;29;20048;-79
2021/09/16 04:45:36;;;;;;;16.00;5.65;;;15.40;99.90;;;;;;4897748;29;20092;-80
2021/09/16 04:48:02;;;;;;;14.85;5.53;;;15.30;99.90;;;;;;4883135;29;20047;-80
2021/09/16 04:50:28;;;;;;;15.05;5.32;;;15.40;99.90;;;;;;4898043;29;20044;-79
2021/09/16 04:52:54;;;;;;;15.35;5.80;;;15.40;99.90;;;;;;4897855;29;20043;-80
2021/09/16 04:55:20;;;;;;;20.88;5.75;;;15.30;99.90;;;;;;4897943;29;20048;-79
2021/09/16 04:57:46;;;;;;;17.40;5.70;;;15.40;99.90;;;;;;4897268;29;20040;-79
2021/09/16 05:00:12;;;;;;;20.60;6.25;;;15.40;99.90;;;;;;4882376;29;20447;-79
2021/09/16 05:02:37;;;;;;;15.75;5.68;;;15.40;99.90;;;;;;4896808;29;20507;-79
2021/09/16 05:05:04;;;;;;;17.00;5.53;;;15.40;99.90;;;;;;4897463;29;20052;-80
2021/09/16 05:07:30;;;;;;;19.00;6.07;;;15.50;99.90;;;;;;4896835;29;20063;-80
2021/09/16 05:09:56;;;;;;;13.13;5.03;;;15.50;99.90;;;;;;4914064;29;20051;-80
2021/09/16 05:12:22;;;;;;;15.98;5.25;;;15.50;99.90;;;;;;4880451;29;20791;-80
2021/09/16 05:14:48;;;;;;;15.60;5.13;;;15.50;99.90;;;;;;4898164;29;20055;-80
2021/09/16 05:17:14;;;;;;;18.48;5.15;;;15.50;99.90;;;;;;4898202;29;20048;-80
2021/09/16 05:19:39;;;;;;;13.25;4.40;;;15.50;99.90;;;;;;4879639;29;20043;-79
2021/09/16 05:22:05;;;;;;;20.08;4.50;;;15.50;99.90;;;;;;4900320;29;20353;-79
2021/09/16 05:24:31;;;;;;;14.00;4.32;;;15.50;99.90;;;;;;4897160;29;20039;-79
2021/09/16 05:26:58;;;;;;;18.27;4.70;;;15.50;99.90;;;;;;4881509;29;20208;-79
2021/09/16 05:29:24;;;;;;;16.65;4.82;;;15.50;99.90;;;;;;4897077;29;20087;-80
2021/09/16 05:31:50;;;;;;;14.23;4.60;;;15.50;99.90;;;;;;4896976;29;20112;-79
2021/09/16 05:34:16;;;;;;;10.57;4.10;;;15.50;99.90;;;;;;4897975;29;20150;-79
2021/09/16 05:36:42;;;;;;;12.27;4.50;;;15.50;99.90;;;;;;4897194;29;20143;-80
2021/09/16 05:39:09;;;;;;;19.17;4.90;;;15.60;99.90;;;;;;4897133;29;20044;-80
2021/09/16 05:41:36;;;;;;;14.57;4.03;;;15.60;99.90;;;;;;4882766;29;20047;-80
2021/09/16 05:44:02;;;;;;;24.00;4.82;;;15.60;99.90;;;;;;4880940;29;20643;-81
2021/09/16 05:46:29;;;;;;;15.00;4.03;;;15.60;99.90;;;;;;4882393;29;20059;-80
2021/09/16 05:48:55;;;;;;;15.40;4.75;;;15.60;99.90;;;;;;4882240;29;20400;-78
2021/09/16 05:51:23;;;;;;;12.35;4.40;;;15.70;99.90;;;;;;4882335;29;20195;-77
2021/09/16 05:53:49;;;;;;;11.80;4.30;;;15.70;99.90;;;;;;4882899;29;20056;-80
2021/09/16 05:56:15;;;;;;;18.80;4.70;;;15.70;99.90;;;;;;4896978;29;20040;-80
2021/09/16 05:58:41;;;;;;;17.15;4.60;;;15.70;99.90;;;;;;4895773;29;20032;-80
2021/09/16 06:01:07;;;;;;;13.00;4.72;;;15.70;99.90;;;;;;4894623;29;20476;-79
2021/09/16 06:03:33;;;;;;;22.60;5.00;;;15.70;99.90;;;;;;4881157;29;20040;-79
2021/09/16 06:05:59;;;;;;;19.83;4.70;;;15.70;99.90;;;;;;4878056;29;20488;-78
2021/09/16 06:08:25;;;;;;;17.25;4.57;;;15.70;99.90;;;;;;4890726;29;20057;-78
2021/09/16 06:10:50;;;;;;;18.50;4.07;;;15.70;99.90;;;;;;4894747;29;20112;-78
2021/09/16 06:13:16;;;;;;;15.35;4.10;;;15.70;99.90;;;;;;4886080;29;20177;-79
2021/09/16 06:15:42;;;;;;;17.42;4.38;;;15.70;99.90;;;;;;4895462;29;20072;-80
2021/09/16 06:18:08;;;;;;;16.88;4.40;;;15.70;99.90;;;;;;4894484;29;20067;-80
2021/09/16 06:20:34;;;;;;;13.82;3.58;;;15.80;99.90;;;;;;4893423;29;20449;-79
2021/09/16 06:23:00;;;;;;;17.02;4.00;;;15.80;99.90;;;;;;4894073;29;20084;-79
2021/09/16 06:25:28;;;;;;;14.10;3.90;;;15.80;99.90;;;;;;4894534;29;20048;-80
2021/09/16 06:27:54;;;;;;;13.13;3.80;;;15.80;99.90;;;;;;4877639;29;20472;-80
2021/09/16 06:30:20;;;;;;;12.75;4.05;;;15.90;99.90;;;;;;4892073;29;20068;-80
2021/09/16 06:32:47;;;;;;;18.13;5.30;;;15.90;99.90;;;;;;4892151;29;20052;-78
2021/09/16 06:35:13;;;;;;;20.67;4.15;;;15.90;99.90;;;;;;4891044;29;20044;-80
2021/09/16 06:37:39;;;;;;;15.15;4.13;;;15.90;99.90;;;;;;4879577;29;20089;-80
2021/09/16 06:40:06;;;;;;;18.48;4.20;;;15.90;99.90;;;;;;4879764;29;20041;-80
2021/09/16 06:42:32;;;;;;;10.65;3.58;;;15.90;99.90;;;;;;4893706;29;20083;-79
2021/09/16 06:44:58;;;;;;;19.10;4.03;;;15.90;99.90;;;;;;4893554;29;20493;-79
2021/09/16 06:47:24;;;;;;;17.52;3.78;;;15.90;99.90;;;;;;4874229;29;20139;-81
2021/09/16 06:49:53;;;;;;;21.40;4.00;;;15.90;99.90;;;;;;4877624;29;20599;-80
2021/09/16 06:52:21;;;;;;;19.00;4.63;;;15.90;99.90;;;;;;4892479;29;20146;-80
2021/09/16 06:54:46;;;;;;;20.98;4.50;;;16.00;99.90;;;;;;4892408;29;20053;-80
2021/09/16 06:57:12;;;;;;;17.77;4.43;;;16.00;99.90;;;;;;4891327;29;20068;-79
2021/09/16 06:59:38;;;;;;;9.38;3.35;;;16.00;99.90;;;;;;4890878;29;20047;-79
2021/09/16 07:02:04;;;;;;;18.60;4.15;;;16.00;99.90;;;;;;4891136;29;20058;-78
2021/09/16 07:04:30;;;;;;;12.82;3.83;;;16.00;99.90;;;;;;4876915;29;20056;-78
2021/09/16 07:06:58;;;;;;;11.07;3.45;;;16.00;99.90;;;;;;4879568;29;20084;-76
2021/09/16 07:09:24;;;;;;;18.75;3.70;;;16.00;99.90;;;;;;4892475;29;20603;-79
2021/09/16 07:11:50;;;;;;;17.35;4.38;;;16.10;99.90;;;;;;4895719;29;20393;-78
2021/09/16 07:14:16;;;;;;;19.73;4.10;;;16.00;99.90;;;;;;4878630;29;20055;-79
2021/09/16 07:16:42;;;;;;;13.88;3.70;;;16.00;99.90;;;;;;4892726;29;20048;-76
2021/09/16 07:19:08;;;;;;;16.48;4.15;;;16.00;99.90;;;;;;4881001;29;20060;-80
2021/09/16 07:21:34;;;;;;;14.55;4.03;;;16.00;99.90;;;;;;4895114;29;20088;-79
2021/09/16 07:24:03;;;;;;;16.20;4.47;;;15.90;99.90;;;;;;4897383;29;20545;-79
2021/09/16 07:26:29;;;;;;;19.90;4.20;;;16.00;99.90;;;;;;4895821;29;20397;-79
2021/09/16 07:28:55;;;;;;;14.40;4.00;;;15.90;99.90;;;;;;4897000;29;20060;-79
2021/09/16 07:31:21;;;;;;;20.27;4.43;;;16.00;99.90;;;;;;4898226;29;20147;-80
2021/09/16 07:33:47;;;;;;;25.83;4.53;;;16.00;99.90;;;;;;4897145;29;20051;-79
2021/09/16 07:36:13;;;;;;;16.52;4.70;;;15.90;99.90;;;;;;4897746;29;20477;-80
2021/09/16 07:38:39;;;;;;;16.65;4.85;;;16.00;99.90;;;;;;4894334;29;20049;-80
2021/09/16 07:41:04;;;;;;;20.05;5.00;;;16.00;99.90;;;;;;4894979;29;20469;-80
2021/09/16 07:43:30;;;;;;;19.77;4.90;;;16.10;99.90;;;;;;4912437;29;20163;-80
2021/09/16 07:45:56;;;;;;;14.52;3.95;;;16.10;99.90;;;;;;4897092;29;20045;-81
2021/09/16 07:48:22;;;;;;;17.45;4.53;;;16.20;99.90;;;;;;4898957;29;20465;-80
2021/09/16 07:50:49;;;;;;;11.02;3.97;;;16.20;99.90;;;;;;4897845;29;20044;-80
2021/09/16 07:53:14;;;;;;;14.57;3.90;;;16.30;99.90;;;;;;4882556;29;20052;-80
2021/09/16 07:55:40;;;;;;;14.65;3.95;;;16.40;99.90;;;;;;4894391;29;20050;-80
2021/09/16 07:58:06;;;;;;;16.33;4.32;;;16.40;99.90;;;;;;4895813;29;20136;-80
2021/09/16 08:00:33;;;;;;;15.35;3.75;;;16.50;99.90;;;;;;4881991;29;20053;-79
2021/09/16 08:02:59;;;;;;;17.50;3.65;;;16.50;99.90;;;;;;4897247;29;20144;-79
2021/09/16 08:05:25;;;;;;;15.20;3.70;;;16.60;99.90;;;;;;4896512;29;20144;-80
2021/09/16 08:07:51;;;;;;;12.90;3.90;;;16.60;99.90;;;;;;4894371;29;20076;-78
2021/09/16 08:10:17;;;;;;;14.23;3.03;;;16.70;99.90;;;;;;4902589;29;20515;-79
2021/09/16 08:12:43;;;;;;;16.05;3.75;;;16.70;99.90;;;;;;4899728;29;20154;-80
2021/09/16 08:15:09;;;;;;;19.30;3.15;;;16.70;99.90;;;;;;4899706;29;20044;-80
2021/09/16 08:17:36;;;;;;;14.65;3.47;;;16.80;99.90;;;;;;4884138;29;20048;-79
2021/09/16 08:20:05;;;;;;;13.00;3.10;;;16.80;99.90;;;;;;4884266;29;20499;-79
2021/09/16 08:22:31;;;;;;;16.35;3.38;;;16.80;99.90;;;;;;4899792;29;20099;-78
2021/09/16 08:24:57;;;;;;;14.60;3.40;;;16.80;99.90;;;;;;4900459;29;20044;-80
2021/09/16 08:27:23;;;;;;;16.38;3.42;;;16.80;99.90;;;;;;4895398;29;20147;-79
2021/09/16 08:29:48;;;;;;;15.20;3.10;;;16.80;99.90;;;;;;4898804;29;20449;-79
2021/09/16 08:32:17;;;;;;;14.80;3.33;;;16.90;99.90;;;;;;4897070;29;20044;-80
2021/09/16 08:34:43;;;;;;;14.52;3.15;;;16.90;99.90;;;;;;4911928;29;20037;-78
2021/09/16 08:37:11;;;;;;;11.65;2.90;;;17.00;99.90;;;;;;4912627;29;20036;-82
2021/09/16 08:39:37;;;;;;;8.50;2.88;;;16.90;99.90;;;;;;4891135;29;20545;-78
2021/09/16 08:42:03;;;;;;;11.20;2.85;;;17.00;99.90;;;;;;4895777;29;20125;-78
2021/09/16 08:44:42;;;;;;;16.25;3.40;;;17.10;99.90;;;;;;4895526;29;20044;-82
2021/09/16 08:47:09;;;;;;;14.07;3.35;;;17.00;99.90;;;;;;4879844;29;20096;-79
2021/09/16 08:49:35;;;;;;;22.15;2.95;;;17.10;99.90;;;;;;4897539;29;20094;-78
2021/09/16 08:52:01;;;;;;;11.88;2.78;;;17.20;99.90;;;;;;4880585;29;20079;-78
2021/09/16 08:54:29;;;;;;;12.82;2.80;;;17.30;99.90;;;;;;4896489;29;20135;-78
2021/09/16 08:56:55;;;;;;;12.77;2.67;;;17.30;99.90;;;;;;4913646;29;20448;-77
2021/09/16 08:59:21;;;;;;;11.90;2.58;;;17.40;99.90;;;;;;4897024;29;20334;-77
2021/09/16 09:01:47;;;;;;;10.15;2.55;;;17.50;99.90;;;;;;4880682;29;20052;-77
2021/09/16 09:04:13;;;;;;;12.55;2.85;;;17.50;99.90;;;;;;4886753;29;20059;-77
2021/09/16 09:06:39;;;;;;;9.98;2.20;;;17.50;99.90;;;;;;4881418;29;20060;-75
2021/09/16 09:09:15;;;;;;;8.43;2.15;;;17.60;99.90;;;;;;4896880;29;20060;-76
2021/09/16 09:11:55;;;;;;;9.95;2.50;;;17.60;99.90;;;;;;4875296;29;20144;-77
2021/09/16 09:14:24;;;;;;;9.77;2.33;;;17.80;99.90;;;;;;4882351;29;20052;-77
2021/09/16 09:16:51;;;;;;;12.73;2.80;;;17.80;99.90;;;;;;4913599;29;20040;-80
2021/09/16 09:19:20;;;;;;;9.25;2.22;;;18.00;99.90;;;;;;4896568;29;20059;-78
2021/09/16 09:21:47;;;;;;;10.18;2.10;;;18.10;99.90;;;;;;4897446;29;20051;-78
2021/09/16 09:24:26;;;;;;;10.95;2.10;;;18.30;99.90;;;;;;4897501;29;20048;-77
2021/09/16 09:26:52;;;;;;;9.90;1.65;;;18.20;99.90;;;;;;4896027;29;20054;-78
2021/09/16 09:29:18;;;;;;;7.78;1.95;;;18.00;99.90;;;;;;4896747;29;20056;-78
2021/09/16 09:32:07;;;;;;;8.85;2.20;;;17.90;99.90;;;;;;4873654;29;20523;-78
2021/09/16 09:34:39;;;;;;;15.27;2.22;;;17.80;99.90;;;;;;4892747;29;20051;-77
2021/09/16 09:37:17;;;;;;;7.85;1.90;;;17.50;99.90;;;;;;4895358;29;20503;-76
2021/09/16 09:39:50;;;;;;;15.68;2.58;;;17.30;99.90;;;;;;4893810;29;20052;-79
2021/09/16 09:42:22;;;;;;;5.45;2.00;;;17.00;99.90;;;;;;4894630;29;20135;-78
2021/09/16 09:44:55;;;;;;;9.48;2.13;;;17.00;99.90;;;;;;4881489;29;20460;-79
2021/09/16 09:48:15;;;;;;;15.77;2.20;;;16.90;99.90;;;;;;4881044;29;20177;-77
2021/09/16 09:51:25;;;;;;;6.85;2.30;;;16.70;99.90;;;;;;4859192;29;20041;-77
2021/09/16 09:53:50;;;;;;;13.18;3.35;;;16.70;99.90;;;;;;4859786;29;20079;-78
2021/09/16 09:56:19;;;;;;;6.03;2.22;;;16.70;99.90;;;;;;4859681;29;20505;-77
2021/09/16 09:58:46;;;;;;;8.25;2.40;;;16.70;99.90;;;;;;4863030;29;20044;-78
2021/09/16 10:01:35;;;;;;;9.38;2.17;;;16.80;99.90;;;;;;4872610;29;20144;-77
2021/09/16 10:04:23;;;;;;;5.82;2.08;;;16.80;99.90;;;;;;4841913;29;20092;-79
2021/09/16 10:06:49;;;;;;;6.18;2.00;;;16.70;99.90;;;;;;4846914;29;20516;-80
2021/09/16 10:09:15;;;;;;;5.63;2.33;;;16.80;99.90;;;;;;4871856;29;20160;-77
2021/09/16 10:11:51;;;;;;;7.10;2.15;;;16.90;99.90;;;;;;4860979;29;20560;-77
2021/09/16 10:14:18;;;;;;;10.95;2.50;;;17.00;99.90;;;;;;4854614;29;20431;-77
2021/09/16 10:16:45;;;;;;;11.07;2.35;;;17.10;99.90;;;;;;4856512;29;20104;-78
2021/09/16 10:19:12;;;;;;;7.82;2.05;;;17.20;99.90;;;;;;4842281;29;20166;-78
2021/09/16 10:21:38;;;;;;;8.23;2.15;;;17.30;99.90;;;;;;4875455;29;20053;-79
2021/09/16 10:24:07;;;;;;;10.70;2.08;;;17.30;99.90;;;;;;4857591;29;20061;-79
2021/09/16 10:26:44;;;;;;;8.60;2.25;;;17.30;99.90;;;;;;4903003;29;20116;-78
2021/09/16 10:29:29;;;;;;;9.02;1.95;;;17.30;99.90;;;;;;4871572;29;20527;-78
2021/09/16 10:32:07;;;;;;;10.38;2.47;;;17.30;99.90;;;;;;4892634;29;20120;-80
2021/09/16 10:35:13;;;;;;;10.05;2.63;;;17.30;99.90;;;;;;4880407;29;20135;-78
2021/09/16 10:37:39;;;;;;;13.18;2.40;;;17.30;99.90;;;;;;4892631;29;20036;-78
2021/09/16 10:40:24;;;;;;;8.13;2.42;;;17.50;99.90;;;;;;4878068;29;20059;-78
2021/09/16 10:42:52;;;;;;;8.60;2.25;;;17.70;99.90;;;;;;4874921;29;20059;-79
2021/09/16 10:45:40;;;;;;;9.32;2.42;;;17.70;99.90;;;;;;4894098;29;20104;-78
2021/09/16 10:48:15;;;;;;;11.40;2.80;;;17.70;99.90;;;;;;4894404;29;20048;-78
2021/09/16 10:50:42;;;;;;;11.10;2.30;;;17.70;99.90;;;;;;4872994;29;20076;-78
2021/09/16 10:53:31;;;;;;;11.48;2.47;;;17.70;99.90;;;;;;4876640;29;20056;-78
2021/09/16 10:55:57;;;;;;;8.15;2.20;;;17.70;99.90;;;;;;4886900;29;21003;-79
2021/09/16 10:58:28;;;;;;;9.18;2.22;;;17.70;99.90;;;;;;4894398;29;20158;-77
2021/09/16 11:00:54;;;;;;;10.57;2.45;;;18.00;99.90;;;;;;4891811;29;20160;-79
2021/09/16 11:03:21;;;;;;;10.65;2.30;;;17.90;99.90;;;;;;4894951;29;20063;-78
2021/09/16 11:05:50;;;;;;;9.38;2.83;;;17.90;99.90;;;;;;4894603;29;20036;-77
2021/09/16 11:08:19;;;;;;;11.20;3.00;;;18.00;99.90;;;;;;4894193;29;20155;-77
2021/09/16 11:10:44;;;;;;;11.38;3.78;;;17.90;99.90;;;;;;4895411;29;20059;-78
2021/09/16 11:13:31;;;;;;;12.98;3.10;;;17.70;99.90;;;;;;4878644;29;20048;-78
2021/09/16 11:15:57;;;;;;;10.40;3.22;;;17.70;99.90;;;;;;4870575;29;20048;-79
2021/09/16 11:18:24;;;;;;;11.27;3.20;;;17.70;99.90;;;;;;4895317;29;20119;-77
2021/09/16 11:20:57;;;;;;;10.30;3.42;;;17.70;99.90;;;;;;4892541;29;20810;-78
2021/09/16 11:23:40;;;;;;;9.95;3.10;;;17.50;99.90;;;;;;4896096;29;20056;-78
2021/09/16 11:26:12;;;;;;;7.80;2.45;;;17.60;99.90;;;;;;4881015;29;20056;-78
2021/09/16 11:28:37;;;;;;;7.93;2.50;;;17.80;99.90;;;;;;4880454;29;20184;-79
2021/09/16 11:31:03;;;;;;;9.77;2.50;;;18.00;99.90;;;;;;4876538;29;20164;-79
2021/09/16 11:33:29;;;;;;;8.93;2.63;;;18.10;99.90;;;;;;4879199;29;20135;-80
2021/09/16 11:36:05;;;;;;;18.80;3.00;;;18.40;99.90;;;;;;4893752;29;20480;-80
2021/09/16 11:38:30;;;;;;;11.82;2.58;;;18.80;99.90;;;;;;4895998;29;20048;-78
2021/09/16 11:41:02;;;;;;;7.03;1.88;;;18.90;99.90;;;;;;4877430;29;20386;-80
2021/09/16 11:43:28;;;;;;;10.35;2.25;;;19.00;99.90;;;;;;4893692;29;20044;-78
2021/09/16 11:45:53;;;;;;;6.75;2.00;;;19.40;99.90;;;;;;4894495;29;20433;-78
2021/09/16 11:48:22;;;;;;;8.38;1.92;;;19.30;99.90;;;;;;4880304;29;20060;-78
2021/09/16 11:51:03;;;;;;;6.88;1.80;;;19.20;99.90;;;;;;4892646;29;20104;-78
2021/09/16 11:53:36;;;;;;;5.57;1.58;;;19.10;99.90;;;;;;4897348;29;20063;-77
2021/09/16 11:56:05;;;;;;;7.72;1.88;;;19.10;99.90;;;;;;4899390;29;20483;-78
2021/09/16 11:58:33;;;;;;;5.82;1.98;;;19.00;99.90;;;;;;4894799;29;20064;-77
2021/09/16 12:01:03;;;;;;;7.43;1.80;;;18.90;99.90;;;;;;4895606;29;20060;-78
2021/09/16 12:03:40;;;;;;;6.80;1.90;;;19.00;99.90;;;;;;4894674;29;20123;-77
2021/09/16 12:06:23;;;;;;;8.05;1.65;;;19.30;99.90;;;;;;4898999;29;20079;-78
2021/09/16 12:08:51;;;;;;;12.00;1.73;;;19.30;99.90;;;;;;4898749;29;20427;-78
2021/09/16 12:11:23;;;;;;;4.65;1.50;;;19.50;99.90;;;;;;4888812;29;20052;-76
2021/09/16 12:13:49;;;;;;;6.57;1.73;;;19.50;99.90;;;;;;4898571;29;20193;-78
2021/09/16 12:16:36;;;;;;;9.60;1.50;;;19.30;99.90;;;;;;4917046;29;20115;-77
2021/09/16 12:19:07;;;;;;;7.25;1.90;;;19.30;99.90;;;;;;4876218;29;20076;-78
2021/09/16 12:21:37;;;;;;;7.20;1.77;;;19.40;99.90;;;;;;4900299;29;20074;-77
2021/09/16 12:24:12;;;;;;;6.88;1.65;;;19.70;99.90;;;;;;4899042;29;20402;-78
2021/09/16 12:26:45;;;;;;;5.65;1.52;;;20.20;99.90;;;;;;4895759;29;20060;-79
2021/09/16 12:29:40;;;;;;;4.30;1.23;;;20.30;99.90;;;;;;4878211;29;20107;-78
2021/09/16 12:32:08;;;;;;;4.75;1.45;;;20.50;99.90;;;;;;4836617;29;20132;-79
2021/09/16 12:34:39;;;;;;;5.40;1.50;;;20.50;99.90;;;;;;4823415;29;20053;-78
2021/09/16 12:37:16;;;;;;;4.60;1.30;;;20.40;99.90;;;;;;4822271;29;20408;-80
2021/09/16 12:39:52;;;;;;;6.28;1.50;;;20.50;99.90;;;;;;4837128;29;20059;-78
2021/09/16 12:42:36;;;;;;;3.53;1.17;;;20.50;99.90;;;;;;4806252;29;20080;-78
2021/09/16 12:45:11;;;;;;;12.88;1.70;;;20.50;99.90;;;;;;4823314;29;20158;-79